Time;durP1;ratioP1;P1;durP2;ratioP2;P2;SDS_P1;SDS_P2;PMS_P1;PMS_P2;Temp;Humidity;BMP_temperature;BMP_pressure;BME280_temperature;BME280_humidity;BME280_pressure;Samples;Min_cycle;Max_cycle;Signal;HPM_P1;HPM_P2
2023/05/07 00:01:40;;;;;;;9.17;3.23;;;5.00;99.90;4.00;101282;;;;573429;246;24064;-77
2023/05/07 00:04:08;;;;;;;8.30;3.77;;;5.20;99.90;4.10;101269;;;;573433;246;24055;-79
2023/05/07 00:06:39;;;;;;;2.97;2.50;;;6.00;99.90;4.10;101277;;;;573101;246;24044;-76
2023/05/07 00:09:04;;;;;;;9.77;3.53;;;5.30;99.90;4.10;101279;;;;573586;246;24043;-73
2023/05/07 00:11:35;;;;;;;5.87;3.17;;;5.60;99.90;4.20;101264;;;;573577;246;24034;-74
2023/05/07 00:14:00;;;;;;;4.63;2.90;;;5.20;99.90;4.10;101270;;;;573291;246;24109;-74
2023/05/07 00:16:28;;;;;;;7.80;2.80;;;5.00;99.90;4.10;101271;;;;573201;246;24085;-73
2023/05/07 00:18:57;;;;;;;5.10;2.80;;;5.00;99.90;4.10;101272;;;;572827;246;24048;-77
2023/05/07 00:21:28;;;;;;;5.67;3.33;;;5.00;99.90;4.10;101268;;;;581669;246;24029;-77
2023/05/07 00:23:56;;;;;;;4.47;3.10;;;5.00;99.90;4.10;101268;;;;576070;246;24043;-77
2023/05/07 00:26:25;;;;;;;5.53;2.87;;;5.00;99.90;4.00;101277;;;;573479;246;24106;-78
2023/05/07 00:28:53;;;;;;;9.70;3.87;;;5.20;99.90;3.90;101270;;;;573827;246;24093;-77
2023/05/07 00:31:21;;;;;;;7.37;3.80;;;4.70;99.90;3.80;101268;;;;573496;246;24051;-79
2023/05/07 00:33:49;;;;;;;11.20;5.10;;;4.60;99.90;3.70;101270;;;;572650;246;24065;-77
2023/05/07 00:36:17;;;;;;;6.43;3.30;;;4.80;99.90;3.60;101283;;;;572489;246;24049;-76
2023/05/07 00:38:45;;;;;;;7.87;3.57;;;4.80;99.90;3.60;101282;;;;572742;246;24071;-77
2023/05/07 00:41:13;;;;;;;5.43;3.37;;;4.30;99.90;3.50;101278;;;;572597;246;24057;-79
2023/05/07 00:43:41;;;;;;;7.00;3.20;;;4.70;99.90;3.40;101282;;;;572884;246;24037;-76
2023/05/07 00:46:09;;;;;;;6.77;3.70;;;4.10;99.90;3.30;101284;;;;573558;246;24065;-74
2023/05/07 00:48:37;;;;;;;6.43;3.83;;;4.20;99.90;3.30;101290;;;;581928;246;24016;-74
2023/05/07 00:51:07;;;;;;;10.03;4.67;;;4.20;99.90;3.20;101272;;;;572737;246;24037;-76
2023/05/07 00:53:36;;;;;;;12.27;6.17;;;4.20;99.90;3.10;101291;;;;572400;246;24104;-79
2023/05/07 00:56:02;;;;;;;9.02;5.50;;;4.20;99.90;3.10;101283;;;;567435;246;35108;-78
2023/05/07 00:58:30;;;;;;;17.37;3.87;;;3.50;99.90;3.00;101286;;;;572280;246;24047;-76
2023/05/07 01:00:57;;;;;;;7.63;3.97;;;4.00;99.90;3.00;101284;;;;572032;246;24066;-76
2023/05/07 01:03:29;;;;;;;6.32;4.80;;;4.00;99.90;2.90;101290;;;;567175;246;35019;-78
2023/05/07 01:05:57;;;;;;;7.53;4.33;;;3.80;99.90;2.90;101291;;;;571884;242;24075;-73
2023/05/07 01:08:21;;;;;;;7.43;3.47;;;4.20;99.90;2.90;101286;;;;571896;246;25095;-75
2023/05/07 01:10:49;;;;;;;9.13;3.90;;;5.10;99.90;2.80;101290;;;;573379;246;24051;-77
2023/05/07 01:13:17;;;;;;;6.67;3.63;;;3.50;99.90;2.80;101290;;;;573241;246;24055;-77
2023/05/07 01:15:45;;;;;;;6.73;4.33;;;3.80;99.90;2.80;101286;;;;572885;246;24078;-78
2023/05/07 01:18:13;;;;;;;7.47;4.80;;;3.80;99.90;2.70;101295;;;;573048;246;24066;-79
2023/05/07 01:20:45;;;;;;;7.50;5.90;;;3.80;99.90;2.70;101298;;;;572729;246;24058;-76
2023/05/07 01:23:10;;;;;;;9.43;6.00;;;3.50;99.90;2.70;101300;;;;572580;246;24441;-76
2023/05/07 01:25:38;;;;;;;8.53;5.50;;;3.60;99.90;2.60;101301;;;;581427;246;24090;-78
2023/05/07 01:28:06;;;;;;;11.33;7.43;;;3.60;99.90;2.60;101302;;;;572779;246;24102;-76
2023/05/07 01:30:34;;;;;;;11.17;6.10;;;3.50;99.90;2.60;101304;;;;572517;246;24115;-76
2023/05/07 01:33:05;;;;;;;8.70;6.13;;;3.60;99.90;2.60;101306;;;;572365;246;24037;-78
2023/05/07 01:35:39;;;;;;;12.33;6.20;;;3.70;99.90;2.60;101306;;;;572032;246;24093;-75
2023/05/07 01:38:07;;;;;;;13.50;7.03;;;3.60;99.90;2.50;101299;;;;578811;246;24048;-75
2023/05/07 01:40:35;;;;;;;7.40;5.87;;;3.10;99.90;2.40;101309;;;;578478;246;24050;-77
2023/05/07 01:43:03;;;;;;;9.07;6.23;;;3.60;99.90;2.40;101315;;;;581185;246;24073;-78
2023/05/07 01:45:34;;;;;;;10.53;6.20;;;3.30;99.90;2.40;101312;;;;581300;246;24026;-79
2023/05/07 01:47:59;;;;;;;10.20;5.90;;;3.60;99.90;2.40;101321;;;;572239;246;24055;-76
2023/05/07 01:50:27;;;;;;;12.00;6.67;;;3.40;99.90;2.40;101321;;;;572088;246;24053;-79
2023/05/07 01:52:56;;;;;;;9.43;6.00;;;3.40;99.90;2.30;101322;;;;572251;246;24041;-78
2023/05/07 01:55:24;;;;;;;12.17;6.23;;;3.30;99.90;2.30;101323;;;;580889;246;24095;-77
2023/05/07 01:57:52;;;;;;;9.03;6.33;;;3.40;99.90;2.30;101316;;;;572326;246;24067;-78
2023/05/07 02:00:21;;;;;;;13.15;7.95;;;3.40;99.90;2.30;101320;;;;567213;246;35026;-75
2023/05/07 02:02:49;;;;;;;10.33;5.70;;;3.70;99.90;2.20;101321;;;;581086;246;24053;-74
2023/05/07 02:05:16;;;;;;;9.43;6.17;;;3.20;99.90;2.20;101316;;;;572280;246;24039;-73
2023/05/07 02:07:45;;;;;;;7.73;5.70;;;3.30;99.90;2.20;101324;;;;572583;246;24033;-77
2023/05/07 02:10:13;;;;;;;8.73;6.20;;;3.40;99.90;2.30;101327;;;;572277;246;24069;-72
2023/05/07 02:12:42;;;;;;;14.63;7.43;;;3.00;99.90;2.20;101330;;;;572179;246;24050;-77
2023/05/07 02:15:10;;;;;;;12.00;6.90;;;3.30;99.90;2.20;101330;;;;572334;246;24046;-74
2023/05/07 02:17:37;;;;;;;11.50;6.97;;;3.40;99.90;2.20;101328;;;;580755;246;24070;-75
2023/05/07 02:20:07;;;;;;;10.43;7.13;;;3.20;99.90;2.10;101334;;;;569598;246;24046;-77
2023/05/07 02:22:34;;;;;;;12.70;6.60;;;3.00;99.90;2.10;101344;;;;573335;246;24098;-76
2023/05/07 02:25:02;;;;;;;14.90;5.77;;;3.20;99.90;2.00;101338;;;;573242;246;24091;-74
2023/05/07 02:27:29;;;;;;;8.27;6.27;;;3.00;99.90;2.00;101334;;;;573111;246;24146;-73
2023/05/07 02:29:57;;;;;;;10.97;6.90;;;3.20;99.90;1.90;101333;;;;572883;246;24050;-75
2023/05/07 02:32:25;;;;;;;12.70;7.20;;;3.30;99.90;1.90;101337;;;;572842;246;24044;-74
2023/05/07 02:34:53;;;;;;;14.37;8.70;;;2.70;99.90;1.90;101342;;;;572739;246;24084;-73
2023/05/07 02:37:21;;;;;;;11.03;7.67;;;2.60;99.90;1.90;101340;;;;572754;246;24046;-75
2023/05/07 02:39:49;;;;;;;8.53;6.93;;;2.90;99.90;1.80;101343;;;;573027;246;24058;-74
2023/05/07 02:42:18;;;;;;;10.23;6.97;;;2.90;99.90;1.80;101343;;;;572422;246;24149;-73
2023/05/07 02:44:46;;;;;;;8.83;7.30;;;2.70;99.90;1.70;101340;;;;572587;246;24051;-74
2023/05/07 02:47:14;;;;;;;14.80;7.87;;;2.90;99.90;1.70;101347;;;;572475;246;24071;-74
2023/05/07 02:49:43;;;;;;;10.17;7.53;;;2.70;99.90;1.60;101345;;;;572781;246;24120;-75
2023/05/07 02:52:11;;;;;;;12.10;8.23;;;2.50;99.90;1.60;101344;;;;567508;246;35016;-74
2023/05/07 02:54:39;;;;;;;12.80;8.38;;;2.70;99.90;1.60;101347;;;;576121;246;35023;-72
2023/05/07 02:57:07;;;;;;;13.23;6.97;;;2.50;99.90;1.60;101343;;;;572443;244;24057;-73
2023/05/07 02:59:38;;;;;;;12.40;7.53;;;2.80;99.90;1.60;101342;;;;572611;246;24033;-73
2023/05/07 03:02:03;;;;;;;11.50;7.97;;;2.80;99.90;1.60;101345;;;;572378;246;24077;-73
2023/05/07 03:04:31;;;;;;;11.13;6.97;;;2.50;99.90;1.60;101349;;;;572599;246;24067;-74
2023/05/07 03:06:59;;;;;;;13.07;7.80;;;2.40;99.90;1.60;101343;;;;572603;246;24054;-75
2023/05/07 03:09:27;;;;;;;12.23;7.90;;;2.70;99.90;1.60;101351;;;;577331;246;24051;-74
2023/05/07 03:11:55;;;;;;;15.68;9.63;;;2.60;99.90;1.60;101349;;;;567608;246;35085;-73
2023/05/07 03:14:26;;;;;;;13.53;7.60;;;2.80;99.90;1.60;101355;;;;572579;246;24041;-73
2023/05/07 03:16:51;;;;;;;15.20;8.00;;;2.80;99.90;1.50;101357;;;;572422;246;24034;-73
2023/05/07 03:19:22;;;;;;;14.87;8.40;;;2.40;99.90;1.50;101356;;;;572665;246;24028;-73
2023/05/07 03:21:47;;;;;;;15.67;8.57;;;2.50;99.90;1.50;101352;;;;572290;246;24084;-73
2023/05/07 03:24:15;;;;;;;15.57;8.17;;;2.60;99.90;1.50;101363;;;;572746;246;24073;-73
2023/05/07 03:26:43;;;;;;;20.87;8.93;;;2.50;99.90;1.60;101366;;;;572555;246;24056;-74
2023/05/07 03:29:11;;;;;;;12.80;8.30;;;2.60;99.90;1.60;101365;;;;572654;246;24025;-73
2023/05/07 03:31:40;;;;;;;12.63;8.70;;;2.70;99.90;1.60;101364;;;;572649;246;24036;-73
2023/05/07 03:34:08;;;;;;;12.70;8.70;;;2.70;99.90;1.70;101374;;;;573876;246;24044;-73
2023/05/07 03:36:37;;;;;;;16.37;9.23;;;2.70;99.90;1.70;101376;;;;573906;246;24070;-72
2023/05/07 03:39:05;;;;;;;11.37;7.97;;;2.70;99.90;1.70;101375;;;;573279;246;24095;-72
2023/05/07 03:41:33;;;;;;;15.63;8.83;;;2.70;99.90;1.80;101369;;;;573115;246;24106;-72
2023/05/07 03:44:02;;;;;;;13.13;9.07;;;2.60;99.90;1.80;101382;;;;573221;246;24062;-71
2023/05/07 03:46:30;;;;;;;13.93;8.60;;;2.60;99.90;1.90;101386;;;;573073;246;24039;-72
2023/05/07 03:48:58;;;;;;;12.33;8.33;;;3.00;99.90;2.00;101389;;;;573128;246;24055;-72
2023/05/07 03:51:26;;;;;;;13.17;7.87;;;3.20;99.90;2.20;101382;;;;572940;246;24055;-73
2023/05/07 03:53:54;;;;;;;13.87;8.57;;;3.30;99.90;2.30;101390;;;;572795;246;24040;-74
2023/05/07 03:56:22;;;;;;;14.00;7.83;;;3.40;99.90;2.40;101376;;;;572822;246;24050;-77
2023/05/07 03:58:50;;;;;;;15.65;9.18;;;3.50;99.90;2.50;101385;;;;567492;246;35040;-74
2023/05/07 04:01:18;;;;;;;12.17;5.27;;;3.90;99.90;2.70;101389;;;;572834;246;24068;-72
2023/05/07 04:03:46;;;;;;;11.60;5.53;;;4.20;99.90;3.40;101395;;;;572780;246;24044;-73
2023/05/07 04:06:14;;;;;;;7.90;4.67;;;5.90;99.90;4.90;101398;;;;572858;246;24036;-73
2023/05/07 04:08:42;;;;;;;7.07;4.50;;;7.40;99.90;6.60;101409;;;;572532;246;24066;-73
2023/05/07 04:11:10;;;;;;;8.47;4.30;;;9.20;99.90;8.30;101414;;;;572157;246;24042;-78
2023/05/07 04:13:38;;;;;;;10.30;5.23;;;11.80;99.90;9.90;101420;;;;572584;246;24032;-78
2023/05/07 04:16:06;;;;;;;12.33;5.60;;;12.50;99.90;11.30;101421;;;;581317;246;24051;-76
2023/05/07 04:18:34;;;;;;;7.30;4.67;;;14.00;99.90;12.60;101429;;;;572567;246;24061;-79
2023/05/07 04:21:03;;;;;;;6.30;4.77;;;14.90;99.90;13.80;101426;;;;583004;246;25150;-79
2023/05/07 04:23:31;;;;;;;7.47;5.43;;;15.80;99.90;14.80;101431;;;;570350;249;24075;-79
2023/05/07 04:25:59;;;;;;;7.67;6.03;;;16.90;99.90;15.90;101440;;;;570359;251;24132;-79
2023/05/07 04:28:27;;;;;;;15.20;6.10;;;17.80;99.90;16.80;101439;;;;570339;251;24173;-78
2023/05/07 04:30:55;;;;;;;10.13;6.23;;;19.10;99.90;17.70;101448;;;;570327;249;24137;-77
2023/05/07 04:33:23;;;;;;;9.03;5.73;;;19.80;98.20;18.50;101442;;;;570367;251;24159;-76
2023/05/07 04:35:51;;;;;;;12.23;5.80;;;20.50;93.00;19.20;101451;;;;570291;251;23122;-78
2023/05/07 04:38:19;;;;;;;9.20;6.17;;;21.60;85.30;20.10;101450;;;;570311;251;24131;-77
2023/05/07 04:40:47;;;;;;;6.50;4.97;;;21.60;79.90;20.80;101461;;;;569885;251;24087;-78
2023/05/07 04:43:15;;;;;;;8.40;5.17;;;22.80;73.80;21.50;101465;;;;570067;251;23089;-79
2023/05/07 04:45:43;;;;;;;7.10;4.33;;;23.60;67.40;22.10;101454;;;;570973;250;23111;-78
2023/05/07 04:48:10;;;;;;;6.23;5.07;;;23.50;67.50;22.90;101466;;;;573415;246;24036;-78
2023/05/07 04:50:38;;;;;;;7.73;5.17;;;24.80;57.70;23.40;101471;;;;583525;246;23087;-79
2023/05/07 04:53:07;;;;;;;8.90;4.50;;;25.30;56.40;24.00;101471;;;;581559;246;24093;-78
2023/05/07 04:55:36;;;;;;;5.67;4.97;;;25.90;54.60;24.60;101480;;;;583215;246;23153;-79
2023/05/07 04:58:04;;;;;;;6.53;4.77;;;25.90;54.60;25.10;101483;;;;581282;246;24045;-78
2023/05/07 05:00:31;;;;;;;7.67;4.23;;;26.80;50.70;25.60;101488;;;;583562;246;24043;-78
2023/05/07 05:02:59;;;;;;;10.37;5.50;;;27.50;48.70;26.20;101490;;;;579037;246;23054;-78
2023/05/07 05:05:27;;;;;;;5.23;3.73;;;27.40;48.80;26.40;101488;;;;583343;246;23152;-76
2023/05/07 05:07:55;;;;;;;6.60;3.72;;;28.00;46.30;27.10;101496;;;;570622;250;23087;-75
2023/05/07 05:10:23;;;;;;;4.00;3.62;;;28.20;46.10;27.40;101500;;;;570155;251;23070;-75
2023/05/07 05:12:54;;;;;;;3.72;3.37;;;28.70;43.30;28.00;101501;;;;570270;251;23071;-78
2023/05/07 05:15:22;;;;;;;3.30;3.00;;;29.10;40.60;27.80;101506;;;;570139;251;23091;-76
2023/05/07 05:17:50;;;;;;;5.90;3.22;;;29.20;41.10;28.10;101504;;;;570304;251;24177;-77
2023/05/07 05:20:18;;;;;;;5.20;3.30;;;29.30;40.40;27.90;101508;;;;570168;251;23177;-78
2023/05/07 05:22:46;;;;;;;5.00;3.65;;;29.30;39.00;27.90;101512;;;;569822;251;24120;-77
2023/05/07 05:25:16;;;;;;;3.37;3.08;;;28.90;36.90;27.60;101516;;;;570071;251;23090;-78
2023/05/07 05:27:41;;;;;;;3.55;3.03;;;28.60;37.30;27.10;101512;;;;569801;251;23102;-78
2023/05/07 05:30:13;;;;;;;5.65;3.53;;;28.50;37.70;27.40;101521;;;;570108;251;24090;-78
2023/05/07 05:32:37;;;;;;;4.10;2.80;;;28.50;37.20;27.40;101516;;;;580770;246;24149;-77
2023/05/07 05:35:09;;;;;;;5.00;3.22;;;28.60;37.40;27.60;101528;;;;574178;246;23079;-79
2023/05/07 05:37:33;;;;;;;5.80;2.78;;;29.00;35.70;28.00;101528;;;;572178;246;23058;-76
2023/05/07 05:40:01;;;;;;;5.82;3.17;;;29.00;36.20;27.70;101530;;;;581095;246;23050;-78
2023/05/07 05:42:29;;;;;;;2.83;2.62;;;29.00;35.80;28.00;101532;;;;570403;251;23081;-77
2023/05/07 05:44:57;;;;;;;3.78;2.60;;;29.30;35.80;28.20;101534;;;;570298;251;23090;-78
2023/05/07 05:47:25;;;;;;;5.55;3.20;;;29.40;35.60;28.50;101542;;;;581039;246;24108;-78
2023/05/07 05:49:53;;;;;;;7.57;3.47;;;29.50;35.00;28.40;101544;;;;582669;246;23063;-78
2023/05/07 05:52:23;;;;;;;3.05;2.85;;;29.80;35.70;28.30;101549;;;;568125;251;24088;-79
2023/05/07 05:54:49;;;;;;;5.82;2.62;;;29.40;35.80;28.70;101546;;;;568062;251;23123;-80
2023/05/07 05:57:18;;;;;;;5.32;3.35;;;29.60;35.20;28.50;101554;;;;569303;251;24101;-77
2023/05/07 05:59:47;;;;;;;6.18;3.05;;;29.80;34.90;28.90;101551;;;;562303;251;23090;-77
2023/05/07 06:02:13;;;;;;;4.93;3.20;;;29.80;35.20;29.40;101546;;;;578117;246;24036;-78
2023/05/07 06:04:42;;;;;;;5.47;2.60;;;30.30;35.30;30.20;101557;;;;583588;246;23052;-76
2023/05/07 06:07:09;;;;;;;3.53;3.20;;;31.00;34.40;30.00;101558;;;;570080;251;24163;-74
2023/05/07 06:09:37;;;;;;;5.25;3.67;;;30.70;33.50;29.80;101562;;;;568681;251;23091;-74
2023/05/07 06:12:05;;;;;;;3.28;2.60;;;30.80;34.10;30.00;101556;;;;569055;251;23115;-78
2023/05/07 06:14:33;;;;;;;3.70;3.10;;;31.00;33.40;30.10;101560;;;;568901;251;23122;-79
2023/05/07 06:17:01;;;;;;;3.58;2.53;;;31.10;33.90;30.30;101573;;;;568615;251;23091;-77
2023/05/07 06:19:33;;;;;;;3.05;2.83;;;31.40;33.60;30.50;101570;;;;568441;251;24166;-74
2023/05/07 06:22:02;;;;;;;4.12;2.33;;;31.70;33.90;30.90;101574;;;;568208;251;23151;-77
2023/05/07 06:24:27;;;;;;;5.35;2.90;;;32.40;33.00;31.90;101572;;;;572330;246;24076;-75
2023/05/07 06:26:58;;;;;;;2.65;2.45;;;33.30;32.50;32.60;101578;;;;582835;246;23073;-74
2023/05/07 06:29:23;;;;;;;4.87;2.60;;;33.10;32.60;33.10;101588;;;;581430;246;23065;-75
2023/05/07 06:31:51;;;;;;;2.58;2.37;;;33.80;31.10;32.80;101587;;;;563885;251;23096;-77
2023/05/07 06:34:19;;;;;;;3.70;2.62;;;33.70;30.90;32.60;101588;;;;570630;252;24120;-75
2023/05/07 06:36:47;;;;;;;6.07;3.00;;;33.60;30.80;32.10;101585;;;;570077;251;24144;-76
2023/05/07 06:39:15;;;;;;;4.72;2.78;;;33.30;31.30;32.70;101580;;;;569929;251;23068;-75
2023/05/07 06:41:46;;;;;;;3.33;2.97;;;33.50;31.90;33.70;101585;;;;570190;251;23079;-76
2023/05/07 06:44:11;;;;;;;3.50;2.70;;;34.30;32.00;34.90;101588;;;;571480;251;24122;-77
2023/05/07 06:46:40;;;;;;;2.60;2.40;;;35.80;30.10;35.20;101595;;;;572656;246;23052;-76
2023/05/07 06:49:08;;;;;;;2.45;2.35;;;35.90;30.00;35.00;101596;;;;562991;251;23182;-75
2023/05/07 06:51:37;;;;;;;3.45;3.15;;;36.00;30.60;35.20;101593;;;;570432;251;23075;-76
2023/05/07 06:54:09;;;;;;;3.20;2.45;;;35.90;30.00;35.50;101605;;;;569970;249;23123;-77
2023/05/07 06:56:36;;;;;;;3.45;2.90;;;36.20;29.80;35.30;101601;;;;569691;251;24077;-75
2023/05/07 06:59:01;;;;;;;3.97;2.55;;;36.70;29.80;35.50;101612;;;;580620;246;23097;-74
2023/05/07 07:01:33;;;;;;;4.20;2.60;;;36.30;29.60;35.50;101606;;;;580060;246;23087;-77
2023/05/07 07:04:00;;;;;;;2.70;2.50;;;36.40;29.90;36.10;101606;;;;570032;251;23084;-75
2023/05/07 07:06:32;;;;;;;5.10;2.70;;;36.70;29.60;35.70;101612;;;;569991;251;23101;-76
2023/05/07 07:08:56;;;;;;;2.45;2.35;;;36.60;29.60;36.30;101620;;;;581254;245;23045;-74
2023/05/07 07:11:25;;;;;;;2.95;2.50;;;36.70;28.70;35.80;101621;;;;583823;245;23067;-77
2023/05/07 07:13:54;;;;;;;7.90;5.95;;;35.80;29.20;34.50;101609;;;;582167;246;23054;-78
2023/05/07 07:16:21;;;;;;;3.30;2.97;;;35.70;29.20;34.70;101620;;;;572859;251;23098;-74
2023/05/07 07:18:49;;;;;;;2.95;2.62;;;35.50;29.90;34.90;101622;;;;571026;251;24136;-75
2023/05/07 07:21:17;;;;;;;3.08;2.47;;;35.50;29.90;34.90;101623;;;;570657;251;23083;-74
2023/05/07 07:23:45;;;;;;;3.22;2.92;;;35.50;29.90;34.90;101629;;;;578727;246;23112;-73
2023/05/07 07:26:13;;;;;;;3.53;2.87;;;35.50;29.70;35.40;101628;;;;577865;246;35152;-74
2023/05/07 07:28:47;;;;;;;2.62;2.50;;;36.00;30.00;35.90;101631;;;;581242;246;23108;-80
2023/05/07 07:31:12;;;;;;;4.47;2.65;;;36.90;29.70;36.30;101636;;;;580028;246;23090;-78
2023/05/07 07:33:40;;;;;;;2.25;2.15;;;36.90;29.70;36.80;101630;;;;580456;246;24127;-77
2023/05/07 07:36:08;;;;;;;3.17;2.00;;;37.40;28.90;37.00;101634;;;;582929;246;23082;-76
2023/05/07 07:38:37;;;;;;;4.05;2.50;;;37.30;28.80;36.30;101627;;;;564135;251;23177;-76
2023/05/07 07:41:05;;;;;;;2.28;2.17;;;37.30;28.40;35.80;101631;;;;568481;251;23087;-77
2023/05/07 07:43:33;;;;;;;2.67;2.47;;;36.90;28.70;35.80;101628;;;;568317;251;23099;-76
2023/05/07 07:46:01;;;;;;;2.42;2.10;;;36.70;28.90;35.90;101631;;;;568625;251;24153;-77
2023/05/07 07:48:30;;;;;;;2.72;2.33;;;36.60;28.70;35.80;101635;;;;569972;251;24122;-75
2023/05/07 07:50:58;;;;;;;2.78;1.80;;;36.60;28.70;35.80;101635;;;;572264;246;23072;-78
2023/05/07 07:53:26;;;;;;;3.28;1.80;;;36.60;28.80;36.30;101630;;;;582641;246;23073;-79
2023/05/07 07:55:57;;;;;;;6.78;2.25;;;36.90;28.70;36.10;101636;;;;580828;246;23051;-79
2023/05/07 07:58:22;;;;;;;3.60;2.25;;;36.90;28.90;36.10;101631;;;;571642;250;23148;-77
2023/05/07 08:00:50;;;;;;;2.40;2.20;;;37.00;28.50;36.00;101632;;;;569941;251;24063;-78
2023/05/07 08:03:19;;;;;;;2.60;2.25;;;36.90;28.90;36.90;101625;;;;570062;251;23105;-80
2023/05/07 08:05:45;;;;;;;4.57;2.45;;;37.50;29.10;37.70;101627;;;;569919;251;24121;-78
2023/05/07 08:08:14;;;;;;;2.65;2.55;;;38.30;28.60;37.50;101635;;;;570155;251;23086;-80
2023/05/07 08:10:41;;;;;;;5.60;2.70;;;38.40;28.50;37.10;101628;;;;569965;251;23186;-74
2023/05/07 08:13:09;;;;;;;7.50;3.10;;;38.10;29.00;37.30;101627;;;;569783;250;23091;-74
2023/05/07 08:15:37;;;;;;;2.20;2.05;;;38.20;29.50;38.00;101636;;;;570340;251;25278;-75
2023/05/07 08:18:05;;;;;;;4.85;2.62;;;38.70;29.60;38.60;101632;;;;570343;251;23212;-74
2023/05/07 08:20:36;;;;;;;3.50;2.80;;;39.30;29.60;38.20;101634;;;;571253;250;23081;-77
2023/05/07 08:23:01;;;;;;;2.40;2.20;;;39.30;28.50;37.40;101636;;;;570972;251;23083;-74
2023/05/07 08:25:29;;;;;;;4.18;2.70;;;38.90;28.30;36.60;101635;;;;570700;251;23100;-75
2023/05/07 08:27:57;;;;;;;3.67;2.30;;;38.30;28.60;36.70;101640;;;;572978;246;23052;-75
2023/05/07 08:30:25;;;;;;;2.60;2.40;;;38.00;28.70;36.80;101639;;;;583114;246;23089;-76
2023/05/07 08:32:53;;;;;;;2.78;2.20;;;37.90;28.40;36.60;101637;;;;570606;249;23102;-79
2023/05/07 08:35:21;;;;;;;3.20;2.60;;;37.50;29.20;36.40;101637;;;;581534;246;23067;-77
2023/05/07 08:37:50;;;;;;;5.18;2.70;;;37.60;29.50;36.60;101645;;;;583158;246;23066;-78
2023/05/07 08:40:19;;;;;;;4.93;2.95;;;37.90;29.50;37.00;101652;;;;570285;250;24181;-74
2023/05/07 08:42:46;;;;;;;7.28;2.42;;;37.90;29.50;37.10;101646;;;;570125;249;23091;-75
2023/05/07 08:45:14;;;;;;;4.70;3.17;;;38.20;29.00;36.90;101650;;;;577980;246;23136;-75
2023/05/07 08:47:45;;;;;;;4.00;2.78;;;38.00;29.10;37.30;101657;;;;580709;246;23143;-75
2023/05/07 08:50:13;;;;;;;3.75;3.45;;;38.30;29.30;38.10;101651;;;;560698;251;23082;-74
2023/05/07 08:52:45;;;;;;;3.00;2.72;;;38.80;28.80;37.90;101659;;;;571181;246;23066;-75
2023/05/07 08:55:09;;;;;;;2.85;2.65;;;39.10;28.60;37.40;101648;;;;559282;251;23102;-75
2023/05/07 08:57:38;;;;;;;2.62;2.42;;;38.90;28.50;37.60;101661;;;;570070;251;24133;-73
2023/05/07 09:00:07;;;;;;;6.20;3.05;;;38.90;28.50;37.80;101658;;;;569865;250;23161;-74
2023/05/07 09:02:41;;;;;;;3.37;3.15;;;39.00;28.30;37.80;101651;;;;580941;246;23065;-76
2023/05/07 09:05:07;;;;;;;2.92;2.33;;;38.90;28.60;37.40;101659;;;;570647;246;23133;-74
2023/05/07 09:07:35;;;;;;;2.80;2.60;;;38.90;28.60;37.10;101667;;;;572316;246;23054;-77
2023/05/07 09:10:05;;;;;;;2.95;2.45;;;38.70;28.20;36.60;101662;;;;582623;246;23097;-75
2023/05/07 09:12:30;;;;;;;2.58;2.42;;;38.20;28.60;36.60;101678;;;;562192;251;23127;-76
2023/05/07 09:14:58;;;;;;;2.70;2.53;;;38.30;28.60;36.60;101662;;;;580981;246;23056;-79
2023/05/07 09:17:26;;;;;;;5.10;3.40;;;38.00;28.90;36.50;101666;;;;570905;251;23074;-78
2023/05/07 09:19:54;;;;;;;2.47;2.20;;;38.00;28.70;37.10;101670;;;;581343;246;23049;-80
2023/05/07 09:22:23;;;;;;;3.92;2.40;;;38.40;28.80;37.00;101664;;;;562962;251;24108;-81
2023/05/07 09:24:52;;;;;;;4.07;2.83;;;38.50;29.40;36.90;101661;;;;570113;251;23101;-76
2023/05/07 09:27:20;;;;;;;2.65;2.45;;;38.50;28.60;36.60;101671;;;;580118;246;23044;-74
2023/05/07 09:29:49;;;;;;;3.62;2.92;;;38.50;28.80;36.70;101677;;;;582509;246;23068;-75
2023/05/07 09:32:17;;;;;;;2.72;2.58;;;38.40;28.70;37.30;101675;;;;571349;250;23110;-75
2023/05/07 09:34:48;;;;;;;2.85;2.60;;;38.80;28.80;37.10;101674;;;;571035;251;23094;-75
2023/05/07 09:37:16;;;;;;;2.85;2.65;;;38.80;28.80;36.80;101671;;;;570911;249;23114;-73
2023/05/07 09:39:47;;;;;;;2.45;2.25;;;38.60;29.20;36.80;101673;;;;573686;246;23052;-76
2023/05/07 09:42:15;;;;;;;3.28;2.55;;;38.60;28.70;36.70;101667;;;;563955;251;23092;-75
2023/05/07 09:44:42;;;;;;;6.70;3.12;;;38.50;28.80;36.50;101664;;;;561541;251;23120;-76
2023/05/07 09:47:11;;;;;;;3.00;2.62;;;38.30;28.60;36.80;101669;;;;570639;246;35113;-77
2023/05/07 09:49:36;;;;;;;3.70;2.70;;;38.60;28.40;36.60;101682;;;;574577;246;23087;-74
2023/05/07 09:52:05;;;;;;;10.50;4.10;;;38.30;28.40;36.20;101673;;;;580597;246;23095;-78
2023/05/07 09:54:32;;;;;;;4.62;2.72;;;38.20;28.70;36.10;101677;;;;572788;251;23125;-74
2023/05/07 09:57:02;;;;;;;3.47;2.97;;;38.40;28.70;36.50;101675;;;;571614;250;24092;-75
2023/05/07 09:59:28;;;;;;;2.95;2.20;;;38.30;29.10;37.10;101682;;;;572820;246;23109;-79
2023/05/07 10:01:56;;;;;;;2.03;1.92;;;38.90;28.40;37.30;101680;;;;567205;251;23125;-79
2023/05/07 10:04:24;;;;;;;2.35;2.15;;;39.30;27.90;36.80;101678;;;;577581;246;23050;-79
2023/05/07 10:06:55;;;;;;;3.05;2.78;;;39.00;27.50;36.80;101682;;;;572367;246;23055;-80
2023/05/07 10:09:20;;;;;;;3.00;2.53;;;38.90;27.90;35.80;101687;;;;578581;246;23069;-77
2023/05/07 10:11:48;;;;;;;3.72;2.42;;;38.30;27.50;35.00;101682;;;;572255;246;23073;-78
2023/05/07 10:14:16;;;;;;;4.62;2.60;;;37.50;27.70;33.70;101679;;;;559672;252;23157;-79
2023/05/07 10:16:46;;;;;;;2.33;2.20;;;34.40;27.10;33.10;101696;;;;564670;251;23149;-79
2023/05/07 10:19:11;;;;;;;4.15;2.15;;;34.30;28.20;31.50;101673;;;;569427;250;23093;-76
2023/05/07 10:21:45;;;;;;;6.12;3.33;;;33.20;29.10;30.80;101685;;;;581162;246;23051;-76
2023/05/07 10:24:37;;;;;;;4.40;2.17;;;32.30;29.80;29.60;101673;;;;562886;251;23153;-80
2023/05/07 10:27:02;;;;;;;4.90;2.45;;;31.10;30.60;28.50;101673;;;;563287;252;23156;-77
2023/05/07 10:29:57;;;;;;;2.20;1.92;;;30.80;30.90;27.40;101673;;;;561856;251;23078;-79
2023/05/07 10:32:41;;;;;;;2.17;1.97;;;28.30;32.60;25.60;101665;;;;581332;246;24110;-77
2023/05/07 10:35:18;;;;;;;3.07;1.90;;;26.80;33.90;24.30;101674;;;;574270;245;24059;-77
2023/05/07 10:37:46;;;;;;;5.53;2.00;;;25.30;35.60;23.30;101661;;;;559524;250;23191;-76
2023/05/07 10:40:17;;;;;;;3.50;2.23;;;23.80;37.80;22.10;101667;;;;564112;251;23103;-76
2023/05/07 10:42:59;;;;;;;2.40;2.20;;;22.20;38.60;20.80;101655;;;;570285;250;23101;-74
2023/05/07 10:45:26;;;;;;;2.77;2.57;;;20.60;40.60;19.30;101648;;;;570802;251;24120;-78
2023/05/07 10:48:09;;;;;;;7.30;2.87;;;19.40;46.10;18.20;101652;;;;571011;251;24092;-79
2023/05/07 10:50:40;;;;;;;6.37;3.53;;;18.00;44.80;17.30;101639;;;;578211;246;24078;-78
2023/05/07 10:53:20;;;;;;;5.47;3.03;;;17.30;50.10;16.80;101646;;;;572189;250;24141;-80
2023/05/07 10:55:52;;;;;;;7.47;3.33;;;17.00;49.30;16.20;101633;;;;561864;251;24088;-78
2023/05/07 10:58:26;;;;;;;5.20;3.40;;;16.40;52.60;15.70;101621;;;;565923;251;24125;-76
2023/05/07 11:01:00;;;;;;;3.10;2.90;;;16.00;55.30;15.40;101619;;;;572607;246;24032;-73
2023/05/07 11:03:26;;;;;;;6.43;3.17;;;15.70;54.90;15.10;101624;;;;560850;251;24118;-76
2023/05/07 11:06:12;;;;;;;9.37;3.63;;;15.40;56.60;14.80;101638;;;;568812;248;24146;-79
2023/05/07 11:08:53;;;;;;;5.10;3.30;;;15.10;57.10;14.50;101636;;;;577520;246;24037;-77
2023/05/07 11:11:21;;;;;;;3.30;2.13;;;14.80;59.80;14.20;101632;;;;571258;246;24097;-78
2023/05/07 11:13:52;;;;;;;6.30;2.30;;;14.60;56.90;14.00;101631;;;;560610;251;24143;-80
2023/05/07 11:16:23;;;;;;;5.67;2.50;;;14.40;53.20;13.80;101635;;;;562174;251;24104;-75
2023/05/07 11:18:52;;;;;;;4.57;2.97;;;14.20;54.80;13.60;101644;;;;570559;251;24133;-79
2023/05/07 11:21:35;;;;;;;6.87;2.20;;;14.00;55.70;13.40;101644;;;;561487;251;24147;-74